sensor_id;sensor_type;location;lat;lon;timestamp;P1;durP1;ratioP1;P2;durP2;ratioP2
7575;SDS011;3829;50.798;4.358;2023-05-10T00:01:04;11.37;;;5.73;;
7575;SDS011;3829;50.798;4.358;2023-05-10T00:03:30;10.23;;;5.83;;
7575;SDS011;3829;50.798;4.358;2023-05-10T00:05:56;16.80;;;7.13;;
7575;SDS011;3829;50.798;4.358;2023-05-10T00:08:21;12.60;;;6.43;;
7575;SDS011;3829;50.798;4.358;2023-05-10T00:10:47;11.63;;;6.50;;
7575;SDS011;3829;50.798;4.358;2023-05-10T00:13:13;11.20;;;5.90;;
7575;SDS011;3829;50.798;4.358;2023-05-10T00:15:38;16.60;;;6.67;;
7575;SDS011;3829;50.798;4.358;2023-05-10T00:18:04;16.03;;;7.00;;
7575;SDS011;3829;50.798;4.358;2023-05-10T00:20:30;12.67;;;6.27;;
7575;SDS011;3829;50.798;4.358;2023-05-10T00:22:55;15.20;;;5.93;;
7575;SDS011;3829;50.798;4.358;2023-05-10T00:25:21;9.70;;;5.63;;
7575;SDS011;3829;50.798;4.358;2023-05-10T00:27:47;14.83;;;6.23;;
7575;SDS011;3829;50.798;4.358;2023-05-10T00:30:13;15.07;;;6.13;;
7575;SDS011;3829;50.798;4.358;2023-05-10T00:32:38;15.67;;;6.00;;
7575;SDS011;3829;50.798;4.358;2023-05-10T00:35:04;11.73;;;6.30;;
7575;SDS011;3829;50.798;4.358;2023-05-10T00:37:30;15.83;;;6.40;;
7575;SDS011;3829;50.798;4.358;2023-05-10T00:39:55;13.27;;;6.33;;
7575;SDS011;3829;50.798;4.358;2023-05-10T00:42:21;14.93;;;6.70;;
7575;SDS011;3829;50.798;4.358;2023-05-10T00:44:47;11.00;;;6.90;;
7575;SDS011;3829;50.798;4.358;2023-05-10T00:47:12;11.80;;;6.77;;
7575;SDS011;3829;50.798;4.358;2023-05-10T00:49:38;15.00;;;6.70;;
7575;SDS011;3829;50.798;4.358;2023-05-10T00:52:05;13.63;;;7.20;;
7575;SDS011;3829;50.798;4.358;2023-05-10T00:54:31;13.87;;;8.10;;
7575;SDS011;3829;50.798;4.358;2023-05-10T00:56:57;14.80;;;7.70;;
7575;SDS011;3829;50.798;4.358;2023-05-10T00:59:23;13.23;;;7.17;;
7575;SDS011;3829;50.798;4.358;2023-05-10T01:01:49;13.63;;;7.33;;
7575;SDS011;3829;50.798;4.358;2023-05-10T01:04:16;16.90;;;7.73;;
7575;SDS011;3829;50.798;4.358;2023-05-10T01:06:42;13.97;;;8.30;;
7575;SDS011;3829;50.798;4.358;2023-05-10T01:09:08;15.13;;;8.07;;
7575;SDS011;3829;50.798;4.358;2023-05-10T01:11:35;15.87;;;7.60;;
7575;SDS011;3829;50.798;4.358;2023-05-10T01:14:03;14.30;;;7.77;;
7575;SDS011;3829;50.798;4.358;2023-05-10T01:16:29;13.43;;;8.03;;
7575;SDS011;3829;50.798;4.358;2023-05-10T01:18:58;20.50;;;7.90;;
7575;SDS011;3829;50.798;4.358;2023-05-10T01:21:31;11.73;;;8.00;;
7575;SDS011;3829;50.798;4.358;2023-05-10T01:26:57;11.43;;;7.93;;
7575;SDS011;3829;50.798;4.358;2023-05-10T01:32:48;13.20;;;7.97;;
7575;SDS011;3829;50.798;4.358;2023-05-10T01:35:23;16.27;;;9.27;;
7575;SDS011;3829;50.798;4.358;2023-05-10T01:38:00;19.33;;;9.07;;
7575;SDS011;3829;50.798;4.358;2023-05-10T01:40:35;12.97;;;8.13;;
7575;SDS011;3829;50.798;4.358;2023-05-10T01:43:08;12.97;;;8.73;;
7575;SDS011;3829;50.798;4.358;2023-05-10T01:45:57;15.10;;;8.63;;
7575;SDS011;3829;50.798;4.358;2023-05-10T01:48:35;12.87;;;7.67;;
7575;SDS011;3829;50.798;4.358;2023-05-10T01:51:05;16.73;;;9.07;;
7575;SDS011;3829;50.798;4.358;2023-05-10T01:53:32;16.37;;;8.73;;
7575;SDS011;3829;50.798;4.358;2023-05-10T01:56:01;14.50;;;9.30;;
7575;SDS011;3829;50.798;4.358;2023-05-10T01:58:28;21.63;;;9.83;;
7575;SDS011;3829;50.798;4.358;2023-05-10T02:00:58;17.73;;;9.77;;
7575;SDS011;3829;50.798;4.358;2023-05-10T02:03:26;18.50;;;9.27;;
7575;SDS011;3829;50.798;4.358;2023-05-10T02:05:56;17.83;;;9.00;;
7575;SDS011;3829;50.798;4.358;2023-05-10T02:08:23;17.37;;;9.77;;
7575;SDS011;3829;50.798;4.358;2023-05-10T02:10:52;18.63;;;9.07;;
7575;SDS011;3829;50.798;4.358;2023-05-10T02:13:20;18.73;;;10.13;;
7575;SDS011;3829;50.798;4.358;2023-05-10T02:15:48;16.00;;;9.20;;
7575;SDS011;3829;50.798;4.358;2023-05-10T02:18:14;17.27;;;9.20;;
7575;SDS011;3829;50.798;4.358;2023-05-10T02:20:41;22.33;;;9.90;;
7575;SDS011;3829;50.798;4.358;2023-05-10T02:23:08;17.17;;;9.20;;
7575;SDS011;3829;50.798;4.358;2023-05-10T02:25:35;19.27;;;9.33;;
7575;SDS011;3829;50.798;4.358;2023-05-10T02:28:04;20.87;;;9.33;;
7575;SDS011;3829;50.798;4.358;2023-05-10T02:30:31;17.73;;;9.37;;
7575;SDS011;3829;50.798;4.358;2023-05-10T02:32:58;21.13;;;8.70;;
7575;SDS011;3829;50.798;4.358;2023-05-10T02:35:25;24.00;;;9.03;;
7575;SDS011;3829;50.798;4.358;2023-05-10T02:37:52;18.00;;;8.50;;
7575;SDS011;3829;50.798;4.358;2023-05-10T02:40:19;13.50;;;8.03;;
7575;SDS011;3829;50.798;4.358;2023-05-10T02:42:46;17.37;;;7.93;;
7575;SDS011;3829;50.798;4.358;2023-05-10T02:45:15;15.37;;;7.57;;
7575;SDS011;3829;50.798;4.358;2023-05-10T02:47:44;16.00;;;7.73;;
7575;SDS011;3829;50.798;4.358;2023-05-10T02:50:10;12.60;;;8.00;;
7575;SDS011;3829;50.798;4.358;2023-05-10T02:52:40;12.80;;;7.33;;
7575;SDS011;3829;50.798;4.358;2023-05-10T02:55:15;15.30;;;7.80;;
7575;SDS011;3829;50.798;4.358;2023-05-10T02:57:47;15.77;;;8.17;;
7575;SDS011;3829;50.798;4.358;2023-05-10T03:00:16;21.13;;;8.87;;
7575;SDS011;3829;50.798;4.358;2023-05-10T03:02:42;15.77;;;7.87;;
7575;SDS011;3829;50.798;4.358;2023-05-10T03:05:08;14.47;;;7.87;;
7575;SDS011;3829;50.798;4.358;2023-05-10T03:07:33;15.60;;;8.17;;
7575;SDS011;3829;50.798;4.358;2023-05-10T03:09:59;15.90;;;8.20;;
7575;SDS011;3829;50.798;4.358;2023-05-10T03:12:31;17.97;;;9.17;;
7575;SDS011;3829;50.798;4.358;2023-05-10T03:15:13;16.20;;;8.80;;
7575;SDS011;3829;50.798;4.358;2023-05-10T03:17:55;18.00;;;9.23;;
7575;SDS011;3829;50.798;4.358;2023-05-10T03:20:33;20.53;;;9.77;;
7575;SDS011;3829;50.798;4.358;2023-05-10T03:23:09;18.40;;;10.30;;
7575;SDS011;3829;50.798;4.358;2023-05-10T03:25:39;23.37;;;10.03;;
7575;SDS011;3829;50.798;4.358;2023-05-10T03:28:06;21.07;;;10.13;;
7575;SDS011;3829;50.798;4.358;2023-05-10T03:30:32;20.77;;;10.70;;
7575;SDS011;3829;50.798;4.358;2023-05-10T03:33:03;23.13;;;10.97;;
7575;SDS011;3829;50.798;4.358;2023-05-10T03:35:30;21.93;;;10.47;;
7575;SDS011;3829;50.798;4.358;2023-05-10T03:37:56;19.17;;;10.33;;
7575;SDS011;3829;50.798;4.358;2023-05-10T03:40:22;25.43;;;10.90;;
7575;SDS011;3829;50.798;4.358;2023-05-10T03:42:48;23.07;;;10.50;;
7575;SDS011;3829;50.798;4.358;2023-05-10T03:45:14;25.43;;;9.90;;
7575;SDS011;3829;50.798;4.358;2023-05-10T03:47:40;24.37;;;10.93;;
7575;SDS011;3829;50.798;4.358;2023-05-10T03:50:06;19.90;;;10.77;;
7575;SDS011;3829;50.798;4.358;2023-05-10T03:52:32;23.23;;;11.63;;
7575;SDS011;3829;50.798;4.358;2023-05-10T03:54:57;28.33;;;11.40;;
7575;SDS011;3829;50.798;4.358;2023-05-10T03:57:23;23.70;;;10.87;;
7575;SDS011;3829;50.798;4.358;2023-05-10T03:59:49;22.03;;;11.23;;
7575;SDS011;3829;50.798;4.358;2023-05-10T04:02:15;22.43;;;11.30;;
7575;SDS011;3829;50.798;4.358;2023-05-10T04:04:40;21.20;;;11.03;;
7575;SDS011;3829;50.798;4.358;2023-05-10T04:07:06;18.90;;;10.30;;
7575;SDS011;3829;50.798;4.358;2023-05-10T04:09:32;21.50;;;10.47;;
7575;SDS011;3829;50.798;4.358;2023-05-10T04:11:58;23.73;;;11.40;;
7575;SDS011;3829;50.798;4.358;2023-05-10T04:14:24;25.73;;;11.90;;
7575;SDS011;3829;50.798;4.358;2023-05-10T04:16:50;21.93;;;11.10;;
7575;SDS011;3829;50.798;4.358;2023-05-10T04:19:15;25.03;;;11.40;;
7575;SDS011;3829;50.798;4.358;2023-05-10T04:21:41;23.67;;;10.77;;
7575;SDS011;3829;50.798;4.358;2023-05-10T04:24:07;20.50;;;10.57;;
7575;SDS011;3829;50.798;4.358;2023-05-10T04:26:33;25.90;;;11.07;;
7575;SDS011;3829;50.798;4.358;2023-05-10T04:28:58;23.43;;;11.10;;
7575;SDS011;3829;50.798;4.358;2023-05-10T04:31:24;21.27;;;10.17;;
7575;SDS011;3829;50.798;4.358;2023-05-10T04:33:49;19.50;;;9.60;;
7575;SDS011;3829;50.798;4.358;2023-05-10T04:36:15;16.87;;;9.07;;
7575;SDS011;3829;50.798;4.358;2023-05-10T04:38:40;15.83;;;9.27;;
7575;SDS011;3829;50.798;4.358;2023-05-10T04:41:07;15.73;;;8.73;;
7575;SDS011;3829;50.798;4.358;2023-05-10T04:43:34;15.90;;;8.00;;
7575;SDS011;3829;50.798;4.358;2023-05-10T04:46:00;18.47;;;8.23;;
7575;SDS011;3829;50.798;4.358;2023-05-10T04:48:25;15.10;;;8.30;;
7575;SDS011;3829;50.798;4.358;2023-05-10T04:50:51;18.53;;;8.47;;
7575;SDS011;3829;50.798;4.358;2023-05-10T04:53:17;14.10;;;8.83;;
7575;SDS011;3829;50.798;4.358;2023-05-10T04:55:42;16.50;;;8.60;;
7575;SDS011;3829;50.798;4.358;2023-05-10T04:58:08;16.63;;;7.53;;
7575;SDS011;3829;50.798;4.358;2023-05-10T05:00:33;13.53;;;7.27;;
7575;SDS011;3829;50.798;4.358;2023-05-10T05:02:59;13.50;;;7.00;;
7575;SDS011;3829;50.798;4.358;2023-05-10T05:05:25;10.90;;;6.20;;
7575;SDS011;3829;50.798;4.358;2023-05-10T05:07:50;10.53;;;6.63;;
7575;SDS011;3829;50.798;4.358;2023-05-10T05:10:16;14.07;;;7.13;;
7575;SDS011;3829;50.798;4.358;2023-05-10T05:12:42;15.30;;;7.70;;
7575;SDS011;3829;50.798;4.358;2023-05-10T05:15:07;13.47;;;8.03;;
7575;SDS011;3829;50.798;4.358;2023-05-10T05:17:34;12.23;;;7.20;;
7575;SDS011;3829;50.798;4.358;2023-05-10T05:20:00;19.83;;;7.93;;
7575;SDS011;3829;50.798;4.358;2023-05-10T05:22:25;11.90;;;7.97;;
7575;SDS011;3829;50.798;4.358;2023-05-10T05:24:53;15.67;;;8.37;;
7575;SDS011;3829;50.798;4.358;2023-05-10T05:27:19;13.93;;;7.23;;
7575;SDS011;3829;50.798;4.358;2023-05-10T05:29:49;13.23;;;7.60;;
7575;SDS011;3829;50.798;4.358;2023-05-10T05:32:17;16.23;;;7.50;;
7575;SDS011;3829;50.798;4.358;2023-05-10T05:34:44;22.37;;;8.30;;
7575;SDS011;3829;50.798;4.358;2023-05-10T05:37:18;13.87;;;8.23;;
7575;SDS011;3829;50.798;4.358;2023-05-10T05:39:45;15.90;;;7.40;;
7575;SDS011;3829;50.798;4.358;2023-05-10T05:42:12;13.60;;;7.37;;
7575;SDS011;3829;50.798;4.358;2023-05-10T05:44:38;15.90;;;8.00;;
7575;SDS011;3829;50.798;4.358;2023-05-10T05:47:04;17.23;;;8.40;;
7575;SDS011;3829;50.798;4.358;2023-05-10T05:49:30;13.70;;;7.60;;
7575;SDS011;3829;50.798;4.358;2023-05-10T05:52:00;11.70;;;6.93;;
7575;SDS011;3829;50.798;4.358;2023-05-10T05:54:26;12.03;;;6.60;;
7575;SDS011;3829;50.798;4.358;2023-05-10T05:56:54;15.43;;;6.43;;
7575;SDS011;3829;50.798;4.358;2023-05-10T05:59:20;11.80;;;6.73;;
7575;SDS011;3829;50.798;4.358;2023-05-10T06:01:46;16.23;;;6.10;;
7575;SDS011;3829;50.798;4.358;2023-05-10T06:04:12;8.50;;;5.67;;
7575;SDS011;3829;50.798;4.358;2023-05-10T06:06:37;17.00;;;6.47;;
7575;SDS011;3829;50.798;4.358;2023-05-10T06:09:03;13.17;;;6.33;;
7575;SDS011;3829;50.798;4.358;2023-05-10T06:11:29;13.60;;;6.10;;
7575;SDS011;3829;50.798;4.358;2023-05-10T06:13:56;12.77;;;5.63;;
7575;SDS011;3829;50.798;4.358;2023-05-10T06:16:22;15.43;;;6.77;;
7575;SDS011;3829;50.798;4.358;2023-05-10T06:18:48;15.47;;;6.50;;
7575;SDS011;3829;50.798;4.358;2023-05-10T06:21:14;10.30;;;5.70;;
7575;SDS011;3829;50.798;4.358;2023-05-10T06:23:40;9.10;;;5.70;;
7575;SDS011;3829;50.798;4.358;2023-05-10T06:26:05;10.20;;;5.67;;
7575;SDS011;3829;50.798;4.358;2023-05-10T06:28:31;8.40;;;5.27;;
7575;SDS011;3829;50.798;4.358;2023-05-10T06:30:58;10.73;;;6.47;;
7575;SDS011;3829;50.798;4.358;2023-05-10T06:33:24;11.20;;;5.40;;
7575;SDS011;3829;50.798;4.358;2023-05-10T06:35:49;9.63;;;5.73;;
7575;SDS011;3829;50.798;4.358;2023-05-10T06:38:15;12.33;;;5.60;;
7575;SDS011;3829;50.798;4.358;2023-05-10T06:40:41;10.67;;;5.40;;
7575;SDS011;3829;50.798;4.358;2023-05-10T06:43:07;8.27;;;4.57;;
7575;SDS011;3829;50.798;4.358;2023-05-10T06:45:33;7.90;;;4.37;;
7575;SDS011;3829;50.798;4.358;2023-05-10T06:47:58;11.00;;;4.03;;
7575;SDS011;3829;50.798;4.358;2023-05-10T06:50:24;9.33;;;4.70;;
7575;SDS011;3829;50.798;4.358;2023-05-10T06:52:50;6.43;;;4.40;;
7575;SDS011;3829;50.798;4.358;2023-05-10T06:55:15;6.20;;;4.50;;
7575;SDS011;3829;50.798;4.358;2023-05-10T06:57:41;9.40;;;4.43;;
7575;SDS011;3829;50.798;4.358;2023-05-10T07:00:07;7.37;;;4.40;;
7575;SDS011;3829;50.798;4.358;2023-05-10T07:02:34;6.20;;;4.73;;
7575;SDS011;3829;50.798;4.358;2023-05-10T07:05:00;10.97;;;4.97;;
7575;SDS011;3829;50.798;4.358;2023-05-10T07:07:26;6.20;;;4.40;;
7575;SDS011;3829;50.798;4.358;2023-05-10T07:09:51;12.57;;;5.33;;
7575;SDS011;3829;50.798;4.358;2023-05-10T07:12:17;10.57;;;4.80;;
7575;SDS011;3829;50.798;4.358;2023-05-10T07:14:42;9.63;;;5.00;;
7575;SDS011;3829;50.798;4.358;2023-05-10T07:17:08;8.67;;;5.03;;
7575;SDS011;3829;50.798;4.358;2023-05-10T07:19:34;10.33;;;6.00;;
7575;SDS011;3829;50.798;4.358;2023-05-10T07:22:00;10.87;;;6.07;;
7575;SDS011;3829;50.798;4.358;2023-05-10T07:24:26;8.17;;;5.63;;
7575;SDS011;3829;50.798;4.358;2023-05-10T07:26:52;12.57;;;6.37;;
7575;SDS011;3829;50.798;4.358;2023-05-10T07:29:17;10.03;;;5.83;;
7575;SDS011;3829;50.798;4.358;2023-05-10T07:31:43;12.50;;;6.10;;
7575;SDS011;3829;50.798;4.358;2023-05-10T07:34:09;10.57;;;5.63;;
7575;SDS011;3829;50.798;4.358;2023-05-10T07:36:34;12.90;;;5.80;;
7575;SDS011;3829;50.798;4.358;2023-05-10T07:39:00;11.70;;;6.03;;
7575;SDS011;3829;50.798;4.358;2023-05-10T07:41:26;8.40;;;5.67;;
7575;SDS011;3829;50.798;4.358;2023-05-10T07:43:52;9.47;;;5.20;;
7575;SDS011;3829;50.798;4.358;2023-05-10T07:46:17;9.70;;;5.37;;
7575;SDS011;3829;50.798;4.358;2023-05-10T07:48:44;8.23;;;4.73;;
7575;SDS011;3829;50.798;4.358;2023-05-10T07:51:10;9.37;;;5.10;;
7575;SDS011;3829;50.798;4.358;2023-05-10T07:53:36;6.20;;;4.73;;
7575;SDS011;3829;50.798;4.358;2023-05-10T07:56:19;8.87;;;5.10;;
7575;SDS011;3829;50.798;4.358;2023-05-10T07:58:48;9.67;;;4.57;;
7575;SDS011;3829;50.798;4.358;2023-05-10T08:01:13;5.53;;;3.87;;
7575;SDS011;3829;50.798;4.358;2023-05-10T08:03:39;6.37;;;4.27;;
7575;SDS011;3829;50.798;4.358;2023-05-10T08:06:05;6.33;;;4.43;;
7575;SDS011;3829;50.798;4.358;2023-05-10T08:08:31;5.17;;;3.80;;
7575;SDS011;3829;50.798;4.358;2023-05-10T08:10:56;7.13;;;3.47;;
7575;SDS011;3829;50.798;4.358;2023-05-10T08:13:22;6.97;;;3.90;;
7575;SDS011;3829;50.798;4.358;2023-05-10T08:15:47;7.33;;;3.57;;
7575;SDS011;3829;50.798;4.358;2023-05-10T08:18:13;6.13;;;3.37;;
7575;SDS011;3829;50.798;4.358;2023-05-10T08:20:39;6.37;;;3.57;;
7575;SDS011;3829;50.798;4.358;2023-05-10T08:23:04;3.97;;;2.90;;
7575;SDS011;3829;50.798;4.358;2023-05-10T08:25:31;6.60;;;3.43;;
7575;SDS011;3829;50.798;4.358;2023-05-10T08:27:56;4.67;;;3.50;;
7575;SDS011;3829;50.798;4.358;2023-05-10T08:30:22;3.77;;;3.37;;
7575;SDS011;3829;50.798;4.358;2023-05-10T08:32:47;3.67;;;2.83;;
7575;SDS011;3829;50.798;4.358;2023-05-10T08:35:13;6.97;;;3.10;;
7575;SDS011;3829;50.798;4.358;2023-05-10T08:37:39;5.07;;;3.30;;
7575;SDS011;3829;50.798;4.358;2023-05-10T08:40:04;4.53;;;3.30;;
7575;SDS011;3829;50.798;4.358;2023-05-10T08:42:30;4.33;;;3.10;;
7575;SDS011;3829;50.798;4.358;2023-05-10T08:45:01;6.27;;;3.20;;
7575;SDS011;3829;50.798;4.358;2023-05-10T08:47:28;9.20;;;3.03;;
7575;SDS011;3829;50.798;4.358;2023-05-10T08:49:54;5.07;;;3.37;;
7575;SDS011;3829;50.798;4.358;2023-05-10T08:52:22;4.03;;;3.60;;
7575;SDS011;3829;50.798;4.358;2023-05-10T08:54:49;8.00;;;3.10;;
7575;SDS011;3829;50.798;4.358;2023-05-10T08:57:15;4.93;;;3.30;;
7575;SDS011;3829;50.798;4.358;2023-05-10T08:59:41;5.20;;;3.43;;
7575;SDS011;3829;50.798;4.358;2023-05-10T09:02:06;4.40;;;3.37;;
7575;SDS011;3829;50.798;4.358;2023-05-10T09:04:35;6.57;;;3.70;;
7575;SDS011;3829;50.798;4.358;2023-05-10T09:07:00;5.23;;;3.53;;
7575;SDS011;3829;50.798;4.358;2023-05-10T09:09:26;6.17;;;3.23;;
7575;SDS011;3829;50.798;4.358;2023-05-10T09:11:52;4.07;;;3.13;;
7575;SDS011;3829;50.798;4.358;2023-05-10T09:14:19;5.10;;;3.87;;
7575;SDS011;3829;50.798;4.358;2023-05-10T09:16:45;6.90;;;3.67;;
7575;SDS011;3829;50.798;4.358;2023-05-10T09:19:11;5.27;;;3.60;;
7575;SDS011;3829;50.798;4.358;2023-05-10T09:21:37;6.97;;;4.17;;
7575;SDS011;3829;50.798;4.358;2023-05-10T09:24:04;4.97;;;3.50;;
7575;SDS011;3829;50.798;4.358;2023-05-10T09:26:30;9.50;;;3.90;;
7575;SDS011;3829;50.798;4.358;2023-05-10T09:28:57;6.47;;;3.70;;
7575;SDS011;3829;50.798;4.358;2023-05-10T09:31:24;4.90;;;3.80;;
7575;SDS011;3829;50.798;4.358;2023-05-10T09:34:07;5.57;;;3.73;;
7575;SDS011;3829;50.798;4.358;2023-05-10T09:36:33;4.67;;;3.67;;
7575;SDS011;3829;50.798;4.358;2023-05-10T09:38:58;6.23;;;3.70;;
7575;SDS011;3829;50.798;4.358;2023-05-10T09:41:24;6.07;;;4.00;;
7575;SDS011;3829;50.798;4.358;2023-05-10T09:43:50;4.17;;;3.47;;
7575;SDS011;3829;50.798;4.358;2023-05-10T09:46:21;6.80;;;3.87;;
7575;SDS011;3829;50.798;4.358;2023-05-10T09:48:48;4.73;;;3.43;;
7575;SDS011;3829;50.798;4.358;2023-05-10T09:51:18;4.50;;;3.43;;
7575;SDS011;3829;50.798;4.358;2023-05-10T09:53:46;4.43;;;3.50;;
7575;SDS011;3829;50.798;4.358;2023-05-10T09:56:12;5.10;;;3.80;;
7575;SDS011;3829;50.798;4.358;2023-05-10T09:58:39;3.77;;;3.37;;
7575;SDS011;3829;50.798;4.358;2023-05-10T10:01:05;4.80;;;3.40;;
7575;SDS011;3829;50.798;4.358;2023-05-10T10:03:41;3.73;;;3.30;;
7575;SDS011;3829;50.798;4.358;2023-05-10T10:06:07;4.50;;;3.40;;
7575;SDS011;3829;50.798;4.358;2023-05-10T10:08:43;7.20;;;3.40;;
7575;SDS011;3829;50.798;4.358;2023-05-10T10:11:09;4.10;;;3.50;;
7575;SDS011;3829;50.798;4.358;2023-05-10T10:13:34;6.10;;;3.50;;
7575;SDS011;3829;50.798;4.358;2023-05-10T10:16:00;4.83;;;3.43;;
7575;SDS011;3829;50.798;4.358;2023-05-10T10:18:26;7.00;;;3.30;;
7575;SDS011;3829;50.798;4.358;2023-05-10T10:20:54;5.40;;;3.60;;
7575;SDS011;3829;50.798;4.358;2023-05-10T10:23:20;4.40;;;3.40;;
7575;SDS011;3829;50.798;4.358;2023-05-10T10:25:46;4.97;;;3.70;;
7575;SDS011;3829;50.798;4.358;2023-05-10T10:28:16;3.90;;;3.23;;
7575;SDS011;3829;50.798;4.358;2023-05-10T10:30:56;3.83;;;2.93;;
7575;SDS011;3829;50.798;4.358;2023-05-10T10:36:17;4.53;;;3.27;;
7575;SDS011;3829;50.798;4.358;2023-05-10T10:38:54;4.40;;;3.07;;
7575;SDS011;3829;50.798;4.358;2023-05-10T10:41:28;4.40;;;3.43;;
7575;SDS011;3829;50.798;4.358;2023-05-10T10:49:32;4.93;;;3.87;;
7575;SDS011;3829;50.798;4.358;2023-05-10T10:54:49;5.83;;;3.60;;
7575;SDS011;3829;50.798;4.358;2023-05-10T10:57:17;5.73;;;3.63;;
7575;SDS011;3829;50.798;4.358;2023-05-10T10:59:44;5.70;;;3.80;;
7575;SDS011;3829;50.798;4.358;2023-05-10T11:04:57;5.40;;;3.80;;
7575;SDS011;3829;50.798;4.358;2023-05-10T11:07:23;6.63;;;3.33;;
7575;SDS011;3829;50.798;4.358;2023-05-10T11:09:49;6.33;;;3.70;;
7575;SDS011;3829;50.798;4.358;2023-05-10T11:12:15;4.17;;;3.30;;
7575;SDS011;3829;50.798;4.358;2023-05-10T11:14:40;6.70;;;3.77;;
7575;SDS011;3829;50.798;4.358;2023-05-10T11:25:15;3.87;;;3.10;;
7575;SDS011;3829;50.798;4.358;2023-05-10T11:27:41;3.90;;;2.80;;
7575;SDS011;3829;50.798;4.358;2023-05-10T11:30:07;3.50;;;3.00;;
7575;SDS011;3829;50.798;4.358;2023-05-10T11:32:36;3.80;;;2.83;;
7575;SDS011;3829;50.798;4.358;2023-05-10T11:35:07;4.13;;;3.20;;
7575;SDS011;3829;50.798;4.358;2023-05-10T11:37:33;3.60;;;2.53;;
7575;SDS011;3829;50.798;4.358;2023-05-10T11:39:59;3.43;;;2.80;;
7575;SDS011;3829;50.798;4.358;2023-05-10T11:42:25;3.33;;;3.03;;
7575;SDS011;3829;50.798;4.358;2023-05-10T11:44:52;3.10;;;2.77;;
7575;SDS011;3829;50.798;4.358;2023-05-10T11:47:17;4.10;;;3.40;;
7575;SDS011;3829;50.798;4.358;2023-05-10T11:49:43;3.93;;;2.80;;
7575;SDS011;3829;50.798;4.358;2023-05-10T11:52:09;3.47;;;3.00;;
7575;SDS011;3829;50.798;4.358;2023-05-10T11:54:36;6.70;;;3.00;;
7575;SDS011;3829;50.798;4.358;2023-05-10T11:57:02;3.87;;;2.90;;
7575;SDS011;3829;50.798;4.358;2023-05-10T11:59:28;5.47;;;3.40;;
7575;SDS011;3829;50.798;4.358;2023-05-10T12:01:54;3.17;;;2.87;;
7575;SDS011;3829;50.798;4.358;2023-05-10T12:04:20;3.73;;;3.43;;
7575;SDS011;3829;50.798;4.358;2023-05-10T12:06:46;3.60;;;3.03;;
7575;SDS011;3829;50.798;4.358;2023-05-10T12:09:12;3.90;;;3.20;;
7575;SDS011;3829;50.798;4.358;2023-05-10T12:11:38;7.13;;;3.20;;
7575;SDS011;3829;50.798;4.358;2023-05-10T12:14:05;3.50;;;3.10;;
7575;SDS011;3829;50.798;4.358;2023-05-10T12:16:31;3.40;;;3.10;;
7575;SDS011;3829;50.798;4.358;2023-05-10T12:18:57;4.23;;;3.33;;
7575;SDS011;3829;50.798;4.358;2023-05-10T12:21:24;4.00;;;3.60;;
7575;SDS011;3829;50.798;4.358;2023-05-10T12:23:52;3.70;;;3.33;;
7575;SDS011;3829;50.798;4.358;2023-05-10T12:26:21;4.20;;;2.80;;
7575;SDS011;3829;50.798;4.358;2023-05-10T12:28:48;3.60;;;2.87;;
7575;SDS011;3829;50.798;4.358;2023-05-10T12:31:13;4.33;;;3.43;;
7575;SDS011;3829;50.798;4.358;2023-05-10T12:33:40;4.33;;;3.50;;
7575;SDS011;3829;50.798;4.358;2023-05-10T12:36:08;5.30;;;4.20;;
7575;SDS011;3829;50.798;4.358;2023-05-10T12:38:36;5.07;;;4.57;;
7575;SDS011;3829;50.798;4.358;2023-05-10T12:41:05;5.47;;;4.30;;
7575;SDS011;3829;50.798;4.358;2023-05-10T12:43:32;4.97;;;4.27;;
7575;SDS011;3829;50.798;4.358;2023-05-10T12:45:58;4.80;;;3.83;;
7575;SDS011;3829;50.798;4.358;2023-05-10T12:48:31;7.33;;;4.17;;
7575;SDS011;3829;50.798;4.358;2023-05-10T12:50:58;4.40;;;3.37;;
7575;SDS011;3829;50.798;4.358;2023-05-10T12:53:24;5.20;;;3.80;;
7575;SDS011;3829;50.798;4.358;2023-05-10T12:55:50;6.37;;;3.60;;
7575;SDS011;3829;50.798;4.358;2023-05-10T12:58:16;4.17;;;3.70;;
7575;SDS011;3829;50.798;4.358;2023-05-10T13:00:41;4.37;;;3.63;;
7575;SDS011;3829;50.798;4.358;2023-05-10T13:03:08;6.80;;;3.57;;
7575;SDS011;3829;50.798;4.358;2023-05-10T13:05:35;6.83;;;3.17;;
7575;SDS011;3829;50.798;4.358;2023-05-10T13:08:00;4.47;;;2.80;;
7575;SDS011;3829;50.798;4.358;2023-05-10T13:10:27;5.23;;;3.40;;
7575;SDS011;3829;50.798;4.358;2023-05-10T13:12:54;3.57;;;2.93;;
7575;SDS011;3829;50.798;4.358;2023-05-10T13:15:20;3.57;;;2.77;;
7575;SDS011;3829;50.798;4.358;2023-05-10T13:17:45;3.73;;;2.90;;
7575;SDS011;3829;50.798;4.358;2023-05-10T13:20:11;4.40;;;2.70;;
7575;SDS011;3829;50.798;4.358;2023-05-10T13:22:37;3.70;;;2.43;;
7575;SDS011;3829;50.798;4.358;2023-05-10T13:25:02;5.17;;;2.60;;
7575;SDS011;3829;50.798;4.358;2023-05-10T13:27:28;2.43;;;2.23;;
7575;SDS011;3829;50.798;4.358;2023-05-10T13:29:54;3.13;;;2.47;;
7575;SDS011;3829;50.798;4.358;2023-05-10T13:32:20;5.07;;;3.07;;
7575;SDS011;3829;50.798;4.358;2023-05-10T13:34:46;5.53;;;3.30;;
7575;SDS011;3829;50.798;4.358;2023-05-10T13:37:11;5.43;;;4.07;;
7575;SDS011;3829;50.798;4.358;2023-05-10T13:39:37;4.60;;;3.87;;
7575;SDS011;3829;50.798;4.358;2023-05-10T13:42:03;7.33;;;4.43;;
7575;SDS011;3829;50.798;4.358;2023-05-10T13:44:29;8.13;;;4.33;;
7575;SDS011;3829;50.798;4.358;2023-05-10T13:46:56;6.70;;;4.30;;
7575;SDS011;3829;50.798;4.358;2023-05-10T13:49:21;6.10;;;4.33;;
7575;SDS011;3829;50.798;4.358;2023-05-10T13:51:47;6.27;;;4.43;;
7575;SDS011;3829;50.798;4.358;2023-05-10T13:54:13;6.07;;;3.93;;
7575;SDS011;3829;50.798;4.358;2023-05-10T13:56:39;8.97;;;4.60;;
7575;SDS011;3829;50.798;4.358;2023-05-10T13:59:08;6.97;;;4.93;;
7575;SDS011;3829;50.798;4.358;2023-05-10T14:01:34;5.27;;;4.77;;
7575;SDS011;3829;50.798;4.358;2023-05-10T14:03:59;8.17;;;5.17;;
7575;SDS011;3829;50.798;4.358;2023-05-10T14:06:25;9.37;;;5.40;;
7575;SDS011;3829;50.798;4.358;2023-05-10T14:08:52;7.20;;;5.70;;
7575;SDS011;3829;50.798;4.358;2023-05-10T14:11:18;10.10;;;6.40;;
7575;SDS011;3829;50.798;4.358;2023-05-10T14:13:44;10.03;;;6.17;;
7575;SDS011;3829;50.798;4.358;2023-05-10T14:16:10;13.23;;;5.83;;
7575;SDS011;3829;50.798;4.358;2023-05-10T14:18:36;9.47;;;5.37;;
7575;SDS011;3829;50.798;4.358;2023-05-10T14:21:02;8.90;;;5.40;;
7575;SDS011;3829;50.798;4.358;2023-05-10T14:23:29;11.83;;;6.30;;
7575;SDS011;3829;50.798;4.358;2023-05-10T14:25:55;8.33;;;5.93;;
7575;SDS011;3829;50.798;4.358;2023-05-10T14:28:20;11.17;;;6.70;;
7575;SDS011;3829;50.798;4.358;2023-05-10T14:30:47;7.93;;;5.83;;
7575;SDS011;3829;50.798;4.358;2023-05-10T14:33:13;7.07;;;6.00;;
7575;SDS011;3829;50.798;4.358;2023-05-10T14:35:38;10.50;;;6.40;;
7575;SDS011;3829;50.798;4.358;2023-05-10T14:38:05;10.13;;;6.20;;
7575;SDS011;3829;50.798;4.358;2023-05-10T14:40:30;9.73;;;6.60;;
7575;SDS011;3829;50.798;4.358;2023-05-10T14:42:56;7.67;;;5.93;;
7575;SDS011;3829;50.798;4.358;2023-05-10T14:45:22;11.47;;;7.00;;
7575;SDS011;3829;50.798;4.358;2023-05-10T14:47:48;10.70;;;6.47;;
7575;SDS011;3829;50.798;4.358;2023-05-10T14:50:14;10.17;;;7.37;;
7575;SDS011;3829;50.798;4.358;2023-05-10T14:52:41;11.83;;;6.90;;
7575;SDS011;3829;50.798;4.358;2023-05-10T14:55:07;15.73;;;9.07;;
7575;SDS011;3829;50.798;4.358;2023-05-10T14:57:33;11.20;;;7.33;;
7575;SDS011;3829;50.798;4.358;2023-05-10T14:59:59;9.93;;;7.13;;
7575;SDS011;3829;50.798;4.358;2023-05-10T15:02:24;10.83;;;7.70;;
7575;SDS011;3829;50.798;4.358;2023-05-10T15:04:50;13.87;;;7.73;;
7575;SDS011;3829;50.798;4.358;2023-05-10T15:07:16;10.10;;;7.33;;
7575;SDS011;3829;50.798;4.358;2023-05-10T15:09:43;11.60;;;7.93;;
7575;SDS011;3829;50.798;4.358;2023-05-10T15:12:09;14.53;;;7.40;;
7575;SDS011;3829;50.798;4.358;2023-05-10T15:14:35;10.03;;;7.90;;
7575;SDS011;3829;50.798;4.358;2023-05-10T15:17:01;10.43;;;6.80;;
7575;SDS011;3829;50.798;4.358;2023-05-10T15:19:27;8.77;;;5.33;;
7575;SDS011;3829;50.798;4.358;2023-05-10T15:21:54;8.80;;;5.57;;
7575;SDS011;3829;50.798;4.358;2023-05-10T15:24:20;11.53;;;6.07;;
7575;SDS011;3829;50.798;4.358;2023-05-10T15:26:46;7.87;;;4.57;;
7575;SDS011;3829;50.798;4.358;2023-05-10T15:29:12;6.40;;;4.40;;
7575;SDS011;3829;50.798;4.358;2023-05-10T15:31:44;5.33;;;3.57;;
7575;SDS011;3829;50.798;4.358;2023-05-10T15:34:14;7.03;;;3.37;;